Time;durP1;ratioP1;P1;durP2;ratioP2;P2;SDS_P1;SDS_P2;PMS_P1;PMS_P2;Temp;Humidity;BMP_temperature;BMP_pressure;BME280_temperature;BME280_humidity;BME280_pressure;Samples;Min_cycle;Max_cycle;Signal;HPM_P1;HPM_P2
2022/04/02 00:02:10;;;;;;;6.00;5.40;;;0.20;99.90;-0.20;97597.00;;;;4999401;28;83805;-57
2022/04/02 00:04:36;;;;;;;13.50;5.32;;;0.20;99.90;-0.30;97583.00;;;;5000637;28;83267;-54
2022/04/02 00:07:04;;;;;;;7.28;5.45;;;0.20;99.90;-0.30;97587.00;;;;4998941;28;82047;-57
2022/04/02 00:09:31;;;;;;;8.95;5.97;;;0.10;99.90;-0.30;97595.00;;;;5001324;28;81976;-58
2022/04/02 00:11:57;;;;;;;6.40;5.25;;;0.10;99.90;-0.30;97591.00;;;;4997717;28;84560;-58
2022/04/02 00:14:23;;;;;;;6.53;5.57;;;0.00;99.90;-0.40;97590.00;;;;4999866;28;83389;-56
2022/04/02 00:16:49;;;;;;;8.20;5.70;;;0.00;99.90;-0.40;97584.00;;;;4999484;28;82331;-55
2022/04/02 00:19:16;;;;;;;7.57;6.22;;;0.00;99.90;-0.40;97592.00;;;;4999010;28;82256;-57
2022/04/02 00:21:42;;;;;;;7.03;6.32;;;0.00;99.90;-0.40;97593.00;;;;4999639;28;83050;-58
2022/04/02 00:24:08;;;;;;;7.07;5.93;;;0.00;99.90;-0.40;97596.00;;;;5001061;28;83943;-59
2022/04/02 00:26:34;;;;;;;6.80;6.00;;;0.00;99.90;-0.50;97584.00;;;;5000551;28;82097;-58
2022/04/02 00:29:00;;;;;;;8.88;6.45;;;-0.10;99.90;-0.50;97573.00;;;;4999823;28;83320;-58
2022/04/02 00:31:29;;;;;;;7.20;6.20;;;-0.10;99.90;-0.50;97569.00;;;;5000001;28;84673;-58
2022/04/02 00:33:56;;;;;;;7.57;6.30;;;-0.10;99.90;-0.50;97577.00;;;;5001908;28;82784;-59
2022/04/02 00:36:22;;;;;;;7.35;6.25;;;-0.10;99.90;-0.50;97571.00;;;;5001282;28;82937;-59
2022/04/02 00:38:49;;;;;;;7.60;5.93;;;-0.10;99.90;-0.50;97547.00;;;;5000396;28;83554;-58
2022/04/02 00:41:16;;;;;;;6.45;5.75;;;-0.10;99.90;-0.50;97565.00;;;;5000501;28;82504;-58
2022/04/02 00:44:00;;;;;;;8.70;6.15;;;-0.10;99.90;-0.60;97552.00;;;;5001684;28;82805;-58
2022/04/02 00:46:27;;;;;;;6.95;5.30;;;-0.20;99.90;-0.60;97538.00;;;;4982861;28;82992;-58
2022/04/02 00:48:54;;;;;;;5.72;4.95;;;-0.20;99.90;-0.60;97544.00;;;;4998209;28;82534;-59
2022/04/02 00:51:21;;;;;;;7.32;5.60;;;-0.20;99.90;-0.60;97537.00;;;;4996968;28;82936;-59
2022/04/02 00:53:51;;;;;;;7.95;5.55;;;-0.20;99.90;-0.70;97543.00;;;;4999412;28;82816;-59
2022/04/02 00:56:18;;;;;;;6.13;5.20;;;-0.20;99.90;-0.70;97539.00;;;;4998347;28;83719;-58
2022/04/02 00:58:46;;;;;;;6.38;5.25;;;-0.30;99.90;-0.70;97526.00;;;;4999130;28;82215;-58
2022/04/02 01:01:14;;;;;;;6.60;5.32;;;-0.30;99.90;-0.70;97530.00;;;;4995574;28;83171;-59
2022/04/02 01:03:43;;;;;;;6.63;5.30;;;-0.30;99.90;-0.70;97528.00;;;;4998440;28;82411;-58
2022/04/02 01:06:12;;;;;;;5.97;5.38;;;-0.30;99.90;-0.80;97531.00;;;;4997247;28;82123;-57
2022/04/02 01:08:39;;;;;;;6.38;5.35;;;-0.30;99.90;-0.70;97521.00;;;;4985606;28;84704;-57
2022/04/02 01:11:07;;;;;;;7.85;5.35;;;-0.30;99.90;-0.80;97510.00;;;;4999418;28;84595;-60
2022/04/02 01:13:34;;;;;;;5.88;5.15;;;-0.40;99.90;-0.80;97502.00;;;;4999541;28;85642;-58
2022/04/02 01:16:05;;;;;;;6.78;5.53;;;-0.30;99.90;-0.80;97524.00;;;;4998897;28;82160;-57
2022/04/02 01:18:33;;;;;;;6.65;5.68;;;-0.40;99.90;-0.80;97487.00;;;;5014935;28;83425;-57
2022/04/02 01:21:00;;;;;;;6.20;5.60;;;-0.40;99.90;-0.90;97511.00;;;;4999842;28;83612;-56
2022/04/02 01:23:35;;;;;;;7.63;5.55;;;-0.40;99.90;-0.90;97495.00;;;;4999407;28;82620;-58
2022/04/02 01:26:11;;;;;;;6.40;5.70;;;-0.40;99.90;-0.90;97489.00;;;;5003634;28;81994;-56
2022/04/02 01:28:53;;;;;;;6.32;5.53;;;-0.40;99.90;-0.90;97489.00;;;;5001301;28;82413;-57
2022/04/02 01:31:25;;;;;;;6.50;5.55;;;-0.40;99.90;-0.90;97509.00;;;;5017897;28;82845;-57
2022/04/02 01:33:53;;;;;;;6.90;6.10;;;-0.40;99.90;-0.90;97497.00;;;;5004335;28;82833;-57
2022/04/02 01:36:22;;;;;;;6.75;6.05;;;-0.40;99.90;-0.90;97499.00;;;;4990149;28;83129;-57
2022/04/02 01:38:58;;;;;;;6.47;5.50;;;-0.40;99.90;-0.90;97503.00;;;;5003399;28;82382;-56
2022/04/02 01:41:27;;;;;;;7.10;5.93;;;-0.40;99.90;-0.90;97481.00;;;;5004225;28;84187;-55
2022/04/02 01:43:54;;;;;;;6.07;5.47;;;-0.40;99.90;-0.90;97492.00;;;;4970434;28;82555;-56
2022/04/02 01:46:20;;;;;;;8.35;5.72;;;-0.40;99.90;-0.90;97477.00;;;;5002431;28;82557;-57
2022/04/02 01:48:49;;;;;;;6.63;5.78;;;-0.40;99.90;-0.90;97475.00;;;;4991357;28;84951;-58
2022/04/02 01:51:15;;;;;;;6.50;5.60;;;-0.40;99.90;-0.90;97490.00;;;;5003973;28;82546;-56
2022/04/02 01:53:42;;;;;;;6.32;5.65;;;-0.50;99.90;-0.90;97481.00;;;;5003444;28;83226;-57
2022/04/02 01:56:10;;;;;;;5.97;5.38;;;-0.40;99.90;-0.90;97463.00;;;;5001894;28;81953;-56
2022/04/02 01:58:45;;;;;;;5.97;5.38;;;-0.50;99.90;-0.90;97454.00;;;;5002070;28;82435;-57
2022/04/02 02:01:16;;;;;;;6.25;5.25;;;-0.40;99.90;-0.90;97469.00;;;;4998716;28;83957;-58
2022/04/02 02:03:44;;;;;;;6.03;5.40;;;-0.40;99.90;-0.90;97486.00;;;;5001440;28;83197;-58
2022/04/02 02:06:11;;;;;;;6.15;5.15;;;-0.50;99.90;-0.90;97468.00;;;;4997536;28;82410;-57
2022/04/02 02:08:41;;;;;;;6.95;5.07;;;-0.40;99.90;-0.90;97445.00;;;;4999704;28;84005;-57
2022/04/02 02:11:26;;;;;;;6.25;4.60;;;-0.40;99.90;-0.80;97444.00;;;;5002099;28;83134;-57
2022/04/02 02:14:16;;;;;;;6.72;5.10;;;-0.40;99.90;-0.80;97457.00;;;;4999997;28;83441;-57
2022/04/02 02:16:46;;;;;;;9.35;4.50;;;-0.40;99.90;-0.80;97459.00;;;;5001681;28;82921;-58
2022/04/02 02:19:12;;;;;;;5.65;4.38;;;-0.40;99.90;-0.90;97467.00;;;;4986209;28;83417;-57
2022/04/02 02:21:39;;;;;;;5.25;4.28;;;-0.40;99.90;-0.90;97452.00;;;;4969170;28;83694;-57
2022/04/02 02:24:06;;;;;;;7.68;4.45;;;-0.40;99.90;-0.90;97451.00;;;;4991625;28;83915;-56
2022/04/02 02:26:34;;;;;;;6.68;5.30;;;-0.40;99.90;-0.90;97451.00;;;;5001705;28;82815;-55
2022/04/02 02:29:04;;;;;;;5.25;4.53;;;-0.40;99.90;-0.90;97447.00;;;;5002318;28;82414;-54
2022/04/02 02:31:35;;;;;;;5.05;4.50;;;-0.40;99.90;-0.90;97470.00;;;;4986171;28;82533;-55
2022/04/02 02:36:54;;;;;;;4.88;4.15;;;-0.50;99.90;-0.90;97451.00;;;;5002295;28;82468;-54
2022/04/02 02:39:21;;;;;;;6.00;4.72;;;-0.50;99.90;-0.90;97458.00;;;;5002170;28;82217;-55
2022/04/02 02:42:02;;;;;;;6.03;4.63;;;-0.50;99.90;-0.90;97463.00;;;;4994830;28;87257;-54
2022/04/02 02:44:38;;;;;;;5.47;4.75;;;-0.50;99.90;-0.90;97479.00;;;;5000586;28;87446;-58
2022/04/02 02:47:12;;;;;;;5.50;4.68;;;-0.50;99.90;-0.90;97486.00;;;;4997679;28;87328;-56
2022/04/02 02:49:41;;;;;;;6.70;4.60;;;-0.50;99.90;-0.90;97490.00;;;;4997404;28;87106;-56
2022/04/02 02:52:11;;;;;;;5.95;4.13;;;-0.50;99.90;-1.00;97497.00;;;;4998299;28;88667;-58
2022/04/02 02:54:37;;;;;;;6.90;5.00;;;-0.60;99.90;-1.00;97478.00;;;;5000133;28;89306;-58
2022/04/02 02:57:06;;;;;;;5.28;4.55;;;-0.60;99.90;-1.10;97495.00;;;;4999066;28;87560;-57
2022/04/02 02:59:33;;;;;;;6.57;4.93;;;-0.70;99.90;-1.10;97474.00;;;;5000495;28;87098;-58
2022/04/02 03:02:00;;;;;;;6.85;5.07;;;-0.70;99.90;-1.20;97473.00;;;;4999980;28;87839;-56
2022/04/02 03:04:26;;;;;;;5.30;4.80;;;-0.70;99.90;-1.20;97486.00;;;;4998530;28;87396;-57
2022/04/02 03:06:59;;;;;;;6.00;5.20;;;-0.70;99.90;-1.30;97487.00;;;;4994826;28;87354;-57
2022/04/02 03:09:29;;;;;;;6.65;5.95;;;-0.80;99.90;-1.30;97475.00;;;;4997837;28;86384;-56
2022/04/02 03:11:56;;;;;;;5.88;5.25;;;-0.90;99.90;-1.30;97471.00;;;;4998781;28;87608;-56
2022/04/02 03:14:31;;;;;;;6.03;5.43;;;-0.90;99.90;-1.40;97463.00;;;;4982992;28;89658;-58
2022/04/02 03:16:58;;;;;;;6.72;5.70;;;-0.90;99.90;-1.40;97448.00;;;;4998838;28;89669;-59
2022/04/02 03:19:24;;;;;;;6.45;5.82;;;-0.90;99.90;-1.30;97444.00;;;;4964608;28;87477;-58
2022/04/02 03:21:53;;;;;;;6.85;6.03;;;-0.90;99.90;-1.40;97452.00;;;;4998625;28;87312;-59
2022/04/02 03:24:21;;;;;;;7.85;5.93;;;-1.00;99.90;-1.40;97443.00;;;;4980639;28;87327;-59
2022/04/02 03:26:47;;;;;;;6.70;5.47;;;-1.00;99.90;-1.50;97452.00;;;;4965474;28;87725;-59
2022/04/02 03:29:20;;;;;;;7.80;6.60;;;-1.00;99.90;-1.50;97439.00;;;;4979782;28;87544;-59
2022/04/02 03:31:47;;;;;;;7.32;5.80;;;-1.00;99.90;-1.50;97447.00;;;;4997358;28;88480;-59
2022/04/02 03:34:15;;;;;;;7.82;6.38;;;-1.10;99.90;-1.50;97449.00;;;;4998237;28;86645;-59
2022/04/02 03:36:42;;;;;;;7.57;6.88;;;-1.10;99.90;-1.60;97445.00;;;;4999765;28;87007;-58
2022/04/02 03:39:09;;;;;;;8.48;6.38;;;-1.10;99.90;-1.60;97449.00;;;;4980350;28;87419;-59
2022/04/02 03:41:35;;;;;;;7.65;6.85;;;-1.20;99.90;-1.60;97458.00;;;;4984149;28;89007;-58
2022/04/02 03:44:04;;;;;;;10.43;7.20;;;-1.20;99.90;-1.70;97450.00;;;;4997112;28;88145;-59
2022/04/02 03:49:18;;;;;;;7.97;6.85;;;-1.20;99.90;-1.70;97455.00;;;;4996076;28;87011;-59
2022/04/02 03:51:44;;;;;;;7.90;7.07;;;-1.30;99.90;-1.70;97467.00;;;;4996552;28;88562;-59
2022/04/02 03:54:16;;;;;;;8.25;6.72;;;-1.30;99.90;-1.70;97468.00;;;;4997919;28;88998;-59
2022/04/02 03:56:47;;;;;;;6.97;6.28;;;-1.20;99.90;-1.70;97467.00;;;;4979689;28;88371;-59
2022/04/02 03:59:16;;;;;;;9.07;6.70;;;-1.30;99.90;-1.70;97466.00;;;;4963736;28;86487;-58
2022/04/02 04:01:46;;;;;;;8.15;6.00;;;-1.30;99.90;-1.70;97464.00;;;;4980638;28;90924;-58
2022/04/02 04:04:14;;;;;;;9.25;6.20;;;-1.30;99.90;-1.80;97454.00;;;;4978024;28;87172;-59
2022/04/02 04:06:41;;;;;;;6.53;5.93;;;-1.30;99.90;-1.70;97448.00;;;;4997316;28;88147;-57
2022/04/02 04:09:08;;;;;;;7.00;6.30;;;-1.30;99.90;-1.70;97443.00;;;;4997712;28;87013;-59
2022/04/02 04:11:35;;;;;;;9.68;6.40;;;-1.30;99.90;-1.70;97437.00;;;;4982406;28;88848;-59
2022/04/02 04:14:02;;;;;;;7.35;6.22;;;-1.20;99.90;-1.60;97439.00;;;;4999021;28;87396;-59
2022/04/02 04:16:29;;;;;;;7.95;6.40;;;-1.20;99.90;-1.60;97441.00;;;;4965983;28;87515;-59
2022/04/02 04:18:56;;;;;;;6.85;6.15;;;-1.10;99.90;-1.60;97422.00;;;;4997504;28;87142;-59
2022/04/02 04:21:24;;;;;;;8.82;5.78;;;-1.10;99.90;-1.70;97445.00;;;;4964394;28;88673;-60
2022/04/02 04:23:53;;;;;;;14.30;5.45;;;-1.20;99.90;-1.70;97435.00;;;;4980824;28;88577;-60
2022/04/02 04:26:20;;;;;;;7.22;5.32;;;-1.20;99.90;-1.70;97434.00;;;;4980902;28;87116;-60
2022/04/02 04:28:47;;;;;;;6.05;5.22;;;-1.30;99.90;-1.70;97422.00;;;;4998905;28;87036;-60
2022/04/02 04:31:17;;;;;;;6.55;5.13;;;-1.30;99.90;-1.80;97434.00;;;;4979026;28;88620;-60
2022/04/02 04:33:46;;;;;;;7.63;5.70;;;-1.40;99.90;-1.80;97415.00;;;;4979931;28;88130;-64
2022/04/02 04:36:13;;;;;;;7.65;6.57;;;-1.40;99.90;-1.90;97428.00;;;;4978993;28;87390;-64
2022/04/02 04:38:39;;;;;;;7.30;6.20;;;-1.50;99.90;-1.90;97419.00;;;;4995721;28;88415;-64
2022/04/02 04:41:12;;;;;;;8.57;7.35;;;-1.50;99.90;-1.90;97428.00;;;;4997131;28;87652;-64
2022/04/02 04:43:41;;;;;;;7.57;6.65;;;-1.40;99.90;-1.70;97426.00;;;;4996298;28;88460;-64
2022/04/02 04:46:09;;;;;;;7.32;6.55;;;-1.30;99.90;-1.80;97425.00;;;;4980242;28;87095;-64
2022/04/02 04:48:37;;;;;;;7.20;6.45;;;-1.40;99.90;-1.80;97422.00;;;;4981437;28;86393;-64
2022/04/02 04:51:05;;;;;;;8.23;7.30;;;-1.30;99.90;-1.90;97429.00;;;;4996948;28;87577;-64
2022/04/02 04:53:34;;;;;;;8.45;7.63;;;-1.40;99.90;-1.70;97423.00;;;;4997636;28;89112;-62
2022/04/02 04:56:01;;;;;;;8.25;7.45;;;-1.30;99.90;-1.70;97437.00;;;;4997308;28;89687;-70
2022/04/02 04:58:29;;;;;;;7.95;7.15;;;-1.30;99.90;-1.90;97418.00;;;;4995727;28;87600;-69
2022/04/02 05:01:00;;;;;;;7.83;6.83;;;-1.40;99.90;-1.80;97426.00;;;;4979785;28;87889;-70
2022/04/02 05:03:31;;;;;;;8.70;7.80;;;-1.40;99.90;-1.80;97430.00;;;;4996378;28;87474;-70
2022/04/02 05:05:59;;;;;;;8.05;7.20;;;-1.40;99.90;-1.70;97428.00;;;;4998436;28;87484;-70
2022/04/02 05:08:25;;;;;;;8.98;6.40;;;-1.30;99.90;-1.70;97421.00;;;;4993206;28;87884;-60
2022/04/02 05:10:57;;;;;;;7.90;7.10;;;-1.30;99.90;-1.70;97429.00;;;;4995929;28;87789;-60
2022/04/02 05:13:29;;;;;;;7.60;6.60;;;-1.30;99.90;-1.80;97418.00;;;;4994960;28;86557;-60
2022/04/02 05:15:58;;;;;;;8.60;6.47;;;-1.40;99.90;-1.90;97407.00;;;;4964750;28;87324;-60
2022/04/02 05:18:27;;;;;;;8.50;6.68;;;-1.40;99.90;-1.90;97410.00;;;;4978528;28;87737;-60
2022/04/02 05:20:53;;;;;;;8.77;7.10;;;-1.40;99.90;-1.80;97412.00;;;;4995522;28;89279;-61
2022/04/02 05:23:21;;;;;;;8.70;6.78;;;-1.40;99.90;-1.80;97415.00;;;;4994643;28;88845;-60
2022/04/02 05:25:51;;;;;;;7.90;7.13;;;-1.40;99.90;-1.70;97406.00;;;;4995628;28;87373;-60
2022/04/02 05:28:19;;;;;;;7.63;6.93;;;-1.30;99.90;-1.70;97376.00;;;;4978957;28;87197;-60
2022/04/02 05:30:47;;;;;;;7.82;6.82;;;-1.30;99.90;-1.70;97406.00;;;;4997766;28;87611;-61
2022/04/02 05:33:13;;;;;;;7.63;6.93;;;-1.30;99.90;-1.70;97399.00;;;;4998205;28;87673;-60
2022/04/02 05:35:39;;;;;;;9.45;7.65;;;-1.30;99.90;-1.70;97401.00;;;;4997998;28;87107;-60
2022/04/02 05:38:05;;;;;;;8.43;7.63;;;-1.30;99.90;-1.70;97390.00;;;;4997627;28;87093;-59
2022/04/02 05:40:32;;;;;;;8.07;7.20;;;-1.20;99.90;-1.60;97382.00;;;;5013741;28;87676;-60
2022/04/02 05:42:58;;;;;;;10.25;7.38;;;-1.20;99.90;-1.50;97383.00;;;;4980886;28;87535;-60
2022/04/02 05:45:25;;;;;;;7.35;6.60;;;-1.10;99.90;-1.50;97381.00;;;;4979612;28;88681;-60
2022/04/02 05:47:52;;;;;;;7.78;6.97;;;-1.10;99.90;-1.40;97372.00;;;;4959279;28;87165;-60
2022/04/02 05:50:20;;;;;;;7.85;7.05;;;-0.90;99.90;-1.30;97377.00;;;;4995693;28;89108;-60
2022/04/02 05:52:49;;;;;;;7.95;6.97;;;-0.80;99.90;-1.30;97372.00;;;;4995712;28;88437;-60
2022/04/02 05:55:17;;;;;;;9.02;7.13;;;-0.90;99.90;-1.20;97373.00;;;;4995491;28;87213;-59
2022/04/02 05:57:44;;;;;;;7.68;6.88;;;-0.80;99.90;-1.20;97378.00;;;;4997051;28;87213;-59
2022/04/02 06:00:14;;;;;;;7.85;7.05;;;-0.80;99.90;-1.30;97369.00;;;;4992468;28;88756;-60
2022/04/02 06:02:40;;;;;;;8.85;7.32;;;-0.90;99.90;-1.30;97349.00;;;;4982692;28;90657;-60
2022/04/02 06:05:10;;;;;;;8.98;7.32;;;-0.90;99.90;-1.30;97374.00;;;;4979671;28;87512;-59
2022/04/02 06:07:36;;;;;;;9.73;7.28;;;-0.90;99.90;-1.50;97363.00;;;;4992679;28;87088;-60
2022/04/02 06:10:05;;;;;;;8.05;7.25;;;-1.00;99.90;-1.40;97358.00;;;;4999413;28;88517;-60
2022/04/02 06:12:32;;;;;;;7.38;6.63;;;-1.00;99.90;-1.40;97356.00;;;;4989280;28;90774;-59
2022/04/02 06:14:59;;;;;;;8.52;7.60;;;-1.00;99.90;-1.40;97354.00;;;;4998227;28;88114;-60
2022/04/02 06:17:26;;;;;;;8.77;6.95;;;-0.90;99.90;-1.30;97358.00;;;;5001216;28;86983;-59
2022/04/02 06:19:52;;;;;;;8.00;7.20;;;-0.90;99.90;-1.30;97382.00;;;;5000101;28;87039;-60
2022/04/02 06:22:19;;;;;;;8.48;7.68;;;-0.90;99.90;-1.10;97348.00;;;;4996573;28;87443;-60
2022/04/02 06:24:46;;;;;;;7.35;6.65;;;-0.80;99.90;-1.10;97363.00;;;;4981303;28;87103;-60
2022/04/02 06:27:12;;;;;;;8.85;7.88;;;-0.80;99.90;-1.10;97353.00;;;;4998223;28;86452;-60
2022/04/02 06:29:38;;;;;;;8.23;7.35;;;-0.70;99.90;-1.10;97354.00;;;;4998635;28;87437;-60
2022/04/02 06:32:05;;;;;;;8.60;7.20;;;-0.70;99.90;-1.10;97355.00;;;;4982532;28;87541;-60
2022/04/02 06:34:32;;;;;;;7.65;6.85;;;-0.70;99.90;-1.00;97340.00;;;;4983422;28;88073;-61
2022/04/02 06:36:59;;;;;;;8.20;7.32;;;-0.70;99.90;-1.10;97347.00;;;;4998359;28;87131;-59
2022/04/02 06:39:25;;;;;;;8.35;7.55;;;-0.80;99.90;-1.10;97330.00;;;;4998731;28;88192;-61
2022/04/02 06:41:51;;;;;;;8.80;7.63;;;-0.80;99.90;-0.90;97320.00;;;;4981904;28;88670;-61
2022/04/02 06:44:17;;;;;;;8.18;7.38;;;-0.60;99.90;-0.80;97311.00;;;;5000211;28;87273;-60
2022/04/02 06:46:44;;;;;;;9.40;7.80;;;-0.50;99.90;-0.90;97304.00;;;;4999690;28;87374;-60
2022/04/02 06:49:10;;;;;;;8.57;7.38;;;-0.60;99.90;-0.90;97312.00;;;;4969724;28;90415;-61
2022/04/02 06:51:37;;;;;;;9.57;8.57;;;-0.50;99.90;-0.90;97292.00;;;;4981109;28;87374;-62
2022/04/02 06:54:05;;;;;;;19.13;8.52;;;-0.60;99.90;-0.80;97296.00;;;;4996706;28;87113;-60
2022/04/02 06:56:31;;;;;;;8.05;7.25;;;-0.50;99.90;-0.80;97282.00;;;;4977832;28;87101;-61
2022/04/02 06:58:58;;;;;;;8.57;7.68;;;-0.40;99.90;-0.70;97285.00;;;;4995706;28;88863;-61
2022/04/02 07:01:24;;;;;;;9.02;7.65;;;-0.40;99.90;-0.60;97264.00;;;;4980563;28;88304;-61
2022/04/02 07:03:50;;;;;;;9.77;7.07;;;-0.20;99.90;-0.50;97259.00;;;;4998563;28;87070;-61
2022/04/02 07:06:16;;;;;;;8.68;7.20;;;-0.20;99.90;-0.40;97254.00;;;;4997168;28;87132;-61
2022/04/02 07:08:42;;;;;;;8.13;7.22;;;-0.10;99.90;-0.40;97248.00;;;;4996979;28;90799;-61
2022/04/02 07:11:09;;;;;;;7.90;7.10;;;0.00;99.90;-0.20;97252.00;;;;4981500;28;87305;-60
2022/04/02 07:13:35;;;;;;;8.48;7.32;;;0.10;99.90;-0.40;97276.00;;;;4983066;28;87065;-61
2022/04/02 07:16:02;;;;;;;8.80;7.55;;;0.00;99.90;-0.30;97252.00;;;;4997989;28;86939;-61
2022/04/02 07:18:29;;;;;;;8.68;7.45;;;-0.10;99.90;-0.50;97249.00;;;;5010908;28;90231;-61
2022/04/02 07:20:58;;;;;;;8.43;7.45;;;-0.20;99.90;-0.40;97267.00;;;;4997513;28;88345;-60
2022/04/02 07:23:25;;;;;;;9.90;7.38;;;-0.10;99.90;-0.10;97248.00;;;;4979967;28;88844;-60
2022/04/02 07:25:55;;;;;;;8.48;7.30;;;0.10;99.90;0.20;97244.00;;;;4999315;28;87673;-60
2022/04/02 07:28:25;;;;;;;8.70;6.22;;;0.50;99.90;0.30;97248.00;;;;4997326;28;89681;-60
2022/04/02 07:30:51;;;;;;;8.82;7.10;;;0.60;99.90;0.20;97221.00;;;;4997364;28;88821;-60
2022/04/02 07:33:22;;;;;;;8.60;6.85;;;0.60;99.90;0.20;97238.00;;;;4999218;28;87675;-60
2022/04/02 07:36:05;;;;;;;8.57;7.07;;;0.60;99.90;0.20;97243.00;;;;4947293;28;87303;-61
2022/04/02 07:39:11;;;;;;;7.97;6.65;;;0.50;99.90;0.20;97242.00;;;;4980537;28;90002;-62
2022/04/02 07:41:53;;;;;;;8.73;7.45;;;0.40;99.90;0.10;97243.00;;;;4997042;28;87447;-61
2022/04/02 07:44:45;;;;;;;9.23;7.30;;;0.30;99.90;-0.20;97247.00;;;;4997302;28;87015;-62
2022/04/02 07:47:17;;;;;;;11.45;7.90;;;0.10;99.90;0.00;97230.00;;;;4995254;28;87919;-62
2022/04/02 07:49:46;;;;;;;10.15;7.20;;;0.20;99.90;-0.10;97228.00;;;;4997461;28;89057;-62
2022/04/02 07:52:14;;;;;;;9.20;8.02;;;0.30;99.90;0.00;97234.00;;;;4997949;28;89350;-62
2022/04/02 07:54:42;;;;;;;9.90;8.38;;;0.30;99.90;0.00;97229.00;;;;4998977;28;87252;-62
2022/04/02 07:57:09;;;;;;;12.20;9.20;;;0.30;99.90;-0.20;97249.00;;;;4997361;28;87445;-62
2022/04/02 07:59:58;;;;;;;9.60;8.60;;;0.10;99.90;-0.10;97225.00;;;;4995630;28;88742;-62
2022/04/02 08:02:38;;;;;;;11.18;8.77;;;0.20;99.90;-0.10;97210.00;;;;4995384;28;88311;-62
2022/04/02 08:05:17;;;;;;;10.40;8.52;;;0.30;99.90;0.00;97211.00;;;;4997948;28;86990;-60
2022/04/02 08:07:50;;;;;;;10.05;8.90;;;0.30;99.90;0.00;97195.00;;;;4996839;28;86522;-60
2022/04/02 08:10:19;;;;;;;9.68;8.65;;;0.40;99.90;0.10;97183.00;;;;4995968;28;87641;-60
2022/04/02 08:12:49;;;;;;;10.38;9.27;;;0.40;99.90;0.20;97177.00;;;;5014291;28;89653;-60
2022/04/02 08:15:21;;;;;;;9.18;8.20;;;0.50;99.90;0.30;97184.00;;;;4995468;28;88368;-60
2022/04/02 08:17:54;;;;;;;13.52;8.70;;;0.60;99.90;0.30;97174.00;;;;4997246;28;87045;-60
2022/04/02 08:20:23;;;;;;;9.63;8.57;;;0.60;99.90;0.30;97182.00;;;;4999296;28;87760;-60
2022/04/02 08:22:51;;;;;;;9.35;8.45;;;0.60;99.90;0.40;97172.00;;;;4995414;28;87284;-60
2022/04/02 08:25:19;;;;;;;9.45;8.55;;;0.70;99.90;0.60;97174.00;;;;4996722;28;87091;-60
2022/04/02 08:27:46;;;;;;;10.52;8.77;;;0.90;99.90;0.60;97172.00;;;;4997077;28;87580;-60
2022/04/02 08:30:28;;;;;;;10.93;9.43;;;0.90;99.90;0.50;97172.00;;;;4996911;28;88187;-60
2022/04/02 08:33:34;;;;;;;13.13;9.20;;;0.80;99.90;0.40;97158.00;;;;4994450;28;89069;-61
2022/04/02 08:36:32;;;;;;;10.32;9.23;;;0.70;99.90;0.50;97171.00;;;;4998599;28;87007;-60
2022/04/02 08:39:38;;;;;;;10.55;9.40;;;0.80;99.90;0.40;97151.00;;;;4996878;28;87489;-61
2022/04/02 08:42:47;;;;;;;10.60;9.52;;;0.70;99.90;0.30;97152.00;;;;4993227;28;89637;-62
2022/04/02 08:45:15;;;;;;;10.73;9.65;;;0.60;99.90;0.20;97153.00;;;;5011861;28;90985;-60
2022/04/02 08:48:16;;;;;;;11.27;9.82;;;0.60;99.90;0.20;97160.00;;;;4997714;28;87292;-60
2022/04/02 08:50:50;;;;;;;10.90;9.52;;;0.40;99.90;0.30;97147.00;;;;4996549;28;87085;-62
2022/04/02 08:53:43;;;;;;;14.00;10.13;;;0.50;99.90;0.20;97128.00;;;;4996341;28;88749;-62
2022/04/02 08:56:17;;;;;;;10.85;9.85;;;0.40;99.90;0.20;97125.00;;;;4997200;28;87320;-60
2022/04/02 08:58:58;;;;;;;11.15;9.27;;;0.50;99.90;0.30;97121.00;;;;4981834;28;87743;-62
2022/04/02 09:02:19;;;;;;;10.80;9.80;;;0.50;99.90;0.30;97124.00;;;;4997617;28;86178;-61
2022/04/02 09:05:17;;;;;;;12.13;9.35;;;0.60;99.90;0.20;97104.00;;;;4993844;28;88077;-61
2022/04/02 09:07:46;;;;;;;10.25;9.23;;;0.50;99.90;0.20;97114.00;;;;4997685;28;87181;-65
2022/04/02 09:10:42;;;;;;;11.00;9.55;;;0.60;99.90;0.30;97101.00;;;;4998602;28;87891;-64
2022/04/02 09:13:26;;;;;;;10.63;9.55;;;0.60;99.90;0.20;97119.00;;;;4998045;28;87737;-65
2022/04/02 09:16:05;;;;;;;10.50;9.10;;;0.50;99.90;0.20;97116.00;;;;4999062;28;89123;-65
2022/04/02 09:18:55;;;;;;;10.77;8.70;;;0.50;99.90;0.10;97108.00;;;;4997126;28;87210;-65
2022/04/02 09:21:31;;;;;;;10.23;8.32;;;0.40;99.90;0.00;97101.00;;;;4998799;28;86943;-65
2022/04/02 09:24:11;;;;;;;8.85;7.95;;;0.40;99.90;0.10;97101.00;;;;4997964;28;87351;-65
2022/04/02 09:26:58;;;;;;;9.55;7.95;;;0.40;99.90;0.20;97079.00;;;;4999104;28;87450;-66
2022/04/02 09:29:28;;;;;;;8.60;7.80;;;0.50;99.90;0.20;97076.00;;;;4998326;28;87304;-65
2022/04/02 09:32:33;;;;;;;9.65;8.65;;;0.50;99.90;0.30;97074.00;;;;4996657;28;87410;-64
2022/04/02 09:35:32;;;;;;;8.75;7.72;;;0.60;99.90;0.40;97088.00;;;;4996547;28;87375;-65
2022/04/02 09:38:26;;;;;;;9.25;7.97;;;0.70;99.90;0.30;97085.00;;;;4994406;28;88953;-65
2022/04/02 09:41:08;;;;;;;7.90;7.15;;;0.70;99.90;0.50;97071.00;;;;4997557;28;88305;-65
2022/04/02 09:43:38;;;;;;;8.65;7.75;;;0.70;99.90;0.50;97075.00;;;;5000301;28;87394;-67
2022/04/02 09:46:42;;;;;;;7.93;7.13;;;0.80;99.90;0.50;97068.00;;;;5001818;28;88028;-65
2022/04/02 09:49:59;;;;;;;8.00;7.20;;;0.80;99.90;0.50;97047.00;;;;4998633;28;87751;-66
2022/04/02 09:52:26;;;;;;;9.10;7.45;;;0.80;99.90;0.60;97046.00;;;;5011235;28;87728;-65
2022/04/02 09:55:05;;;;;;;10.30;7.50;;;0.80;99.90;0.50;97061.00;;;;5002467;28;86978;-65
2022/04/02 09:58:21;;;;;;;9.50;7.25;;;0.80;99.90;0.50;97059.00;;;;5001594;28;86315;-65
2022/04/02 10:01:21;;;;;;;10.60;7.28;;;0.80;99.90;0.60;97041.00;;;;5000110;28;88139;-64
2022/04/02 10:04:39;;;;;;;7.88;7.07;;;0.80;99.90;0.50;97027.00;;;;5000094;28;88381;-65
2022/04/02 10:07:36;;;;;;;8.32;7.53;;;0.80;99.90;0.30;97032.00;;;;5008515;28;88022;-62
2022/04/02 10:10:03;;;;;;;8.70;7.78;;;0.70;99.90;0.30;97029.00;;;;5002299;28;86920;-61
2022/04/02 10:12:30;;;;;;;8.63;7.75;;;0.60;99.90;0.30;97033.00;;;;5001383;28;89153;-63
2022/04/02 10:14:59;;;;;;;8.88;7.38;;;0.50;99.90;0.30;97045.00;;;;5003246;28;89782;-61
2022/04/02 10:17:30;;;;;;;9.10;8.18;;;0.60;99.90;0.20;97046.00;;;;5003521;28;86880;-63
2022/04/02 10:19:58;;;;;;;;;;;0.50;99.90;0.20;97035.00;;;;5001561;28;87490;-63
2022/04/02 10:22:46;;;;;;;8.65;7.85;;;0.40;99.90;0.10;97032.00;;;;4984696;28;89594;-72
2022/04/02 10:25:14;;;;;;;7.90;7.13;;;0.40;99.90;0.20;97012.00;;;;5001945;28;87370;-72
2022/04/02 10:27:43;;;;;;;8.60;7.80;;;0.50;99.90;0.20;97035.00;;;;5000760;28;87628;-72
2022/04/02 10:30:18;;;;;;;8.07;7.32;;;0.50;99.90;0.10;97010.00;;;;4995939;28;88008;-73
2022/04/02 10:32:57;;;;;;;9.20;7.50;;;0.40;99.90;0.10;97020.00;;;;4981091;28;88931;-73
2022/04/02 10:35:26;;;;;;;8.50;7.53;;;0.40;99.90;0.10;97023.00;;;;4999417;28;89136;-73
2022/04/02 10:38:10;;;;;;;8.70;7.80;;;0.40;99.90;0.10;97010.00;;;;4999749;28;87621;-72
2022/04/02 10:40:57;;;;;;;8.35;7.55;;;0.40;99.90;0.00;97012.00;;;;4999931;28;87339;-72
2022/04/02 10:43:30;;;;;;;8.10;7.30;;;0.40;99.90;0.00;97009.00;;;;5001284;28;88062;-68
2022/04/02 10:45:58;;;;;;;8.77;7.88;;;0.30;99.90;-0.10;97011.00;;;;5001451;28;87427;-63
2022/04/02 10:48:45;;;;;;;8.25;6.70;;;0.30;99.90;0.00;96990.00;;;;4981474;28;86883;-62
2022/04/02 10:51:13;;;;;;;10.00;7.80;;;0.30;99.90;0.00;96996.00;;;;4996601;28;86329;-62
2022/04/02 10:53:44;;;;;;;7.50;6.78;;;0.30;99.90;0.00;96989.00;;;;4998760;28;88653;-62
2022/04/02 10:56:21;;;;;;;8.38;6.90;;;0.30;99.90;0.10;96986.00;;;;4981195;28;89533;-63
2022/04/02 10:58:52;;;;;;;8.98;7.15;;;0.40;99.90;0.00;97007.00;;;;4998092;28;87804;-63
2022/04/02 11:01:22;;;;;;;9.73;7.15;;;0.30;99.90;0.00;97017.00;;;;4983772;28;86973;-61
2022/04/02 11:04:04;;;;;;;8.38;7.57;;;0.30;99.90;0.00;97025.00;;;;4998979;28;88552;-62
2022/04/02 11:06:49;;;;;;;8.90;8.00;;;0.30;99.90;0.00;97040.00;;;;4999454;28;88174;-63
2022/04/02 11:09:39;;;;;;;8.40;7.50;;;0.30;99.90;-0.10;97039.00;;;;4997940;28;87624;-63
2022/04/02 11:12:11;;;;;;;9.60;8.70;;;0.30;99.90;-0.10;97042.00;;;;4985975;28;87090;-66
2022/04/02 11:14:42;;;;;;;11.20;10.00;;;0.20;99.90;-0.10;97051.00;;;;4997988;28;87842;-67
2022/04/02 11:17:09;;;;;;;11.83;10.73;;;0.20;99.90;-0.10;97052.00;;;;4995545;28;87831;-66
2022/04/02 11:19:56;;;;;;;12.25;11.05;;;0.20;99.90;-0.10;97047.00;;;;4996977;28;87849;-66
2022/04/02 11:22:55;;;;;;;13.52;12.25;;;0.20;99.90;-0.20;97041.00;;;;4995863;28;87934;-66
2022/04/02 11:25:34;;;;;;;13.93;12.50;;;0.10;99.90;-0.30;97031.00;;;;4994932;28;89421;-66
2022/04/02 11:28:13;;;;;;;15.82;14.43;;;0.10;99.90;-0.30;97032.00;;;;4997533;28;87397;-65